Aviation Digital Data Service (ADDS)

Output produced by METARs form (1615 UTC 05 August 2020)
found at http://aviationweather.gov/metar/data/
 
METAR text: KJOT 051555Z AUTO 19005KT 10SM CLR 22/12 A3015 RMK AO2 T02240121
Conditions at: KJOT (JOLIET , IL, US) observed 1555 UTC 05 August 2020
Temperature: 22.4°C (72°F)
Dewpoint: 12.1°C (54°F) [RH = 52%]
Pressure (altimeter): 30.15 inches Hg (1021.1 mb)
Winds: from the S (190 degrees) at 6 MPH (5 knots; 2.6 m/s)
Visibility: 10 or more miles (16+ km)
Ceiling: at least 12,000 feet AGL
Clouds: sky clear below 12,000 feet AGL
Weather: automated observation with no human augmentation;
there may or may not be significant weather present at this time